createdAt,value
2023-02-03T00:02:45.760Z,96392.84
2023-02-03T00:06:28.589Z,96390.91
2023-02-03T00:10:12.072Z,96381.88
2023-02-03T00:13:56.294Z,96389.97
2023-02-03T00:17:39.344Z,96392.28
2023-02-03T00:21:22.002Z,96371.19
2023-02-03T00:25:05.231Z,96391.06
2023-02-03T00:28:47.929Z,96402.16
2023-02-03T00:32:32.078Z,96376.13
2023-02-03T00:36:15.249Z,96388.44
2023-02-03T00:39:57.952Z,96375.97
2023-02-03T00:43:40.634Z,96386.28
2023-02-03T00:47:23.299Z,96375.06
2023-02-03T00:51:07.789Z,96362.41
2023-02-03T00:54:50.513Z,96376.69
2023-02-03T00:58:33.224Z,96382.44
2023-02-03T01:02:17.038Z,96384.91
2023-02-03T01:06:11.777Z,96391.63
2023-02-03T01:09:54.768Z,96379.56
2023-02-03T01:13:38.165Z,96379.97
2023-02-03T01:17:20.965Z,96397.50
2023-02-03T01:21:07.582Z,96406.97
2023-02-03T01:24:51.815Z,96386.81
2023-02-03T01:28:37.721Z,96386.81
2023-02-03T01:32:20.864Z,96373.81
2023-02-03T01:36:04.152Z,96380.53
2023-02-03T01:39:46.795Z,96367.38
2023-02-03T01:43:38.347Z,96363.94
2023-02-03T01:47:28.022Z,96362.44
2023-02-03T01:51:10.672Z,96353.38
2023-02-03T01:54:55.202Z,96369.00
2023-02-03T01:58:41.104Z,96355.03
2023-02-03T02:02:24.295Z,96362.97
2023-02-03T02:06:09.075Z,96345.16
2023-02-03T02:09:51.851Z,96353.38
2023-02-03T02:13:35.861Z,96362.16
2023-02-03T02:17:34.523Z,96344.59
2023-02-03T02:21:40.649Z,96360.78
2023-02-03T02:25:44.595Z,96355.31
2023-02-03T02:30:08.930Z,96381.59
2023-02-03T02:33:58.259Z,96364.19
2023-02-03T02:37:48.430Z,96367.47
2023-02-03T02:41:36.528Z,96365.84
2023-02-03T02:45:26.370Z,96361.59
2023-02-03T02:49:14.531Z,96379.13
2023-02-03T02:52:57.912Z,96375.72
2023-02-03T02:56:41.347Z,96369.25
2023-02-03T03:00:24.566Z,96370.63
2023-02-03T03:04:10.539Z,96354.47
2023-02-03T03:07:58.023Z,96354.47
2023-02-03T03:11:44.043Z,96344.03
2023-02-03T03:15:28.956Z,96378.84
2023-02-03T03:19:14.746Z,96357.75
2023-02-03T03:23:00.003Z,96370.91
2023-02-03T03:26:46.400Z,96373.66
2023-02-03T03:30:31.693Z,96409.56
2023-02-03T03:34:16.081Z,96362.94
2023-02-03T03:38:01.411Z,96355.00
2023-02-03T03:41:50.720Z,96322.25
2023-02-03T03:45:37.073Z,96314.44
2023-02-03T03:49:22.632Z,96300.47
2023-02-03T03:53:07.240Z,96329.25
2023-02-03T03:56:54.702Z,96355.41
2023-02-03T04:00:39.776Z,96339.66
2023-02-03T04:04:25.506Z,96327.59
2023-02-03T04:08:08.139Z,96348.00
2023-02-03T04:12:02.695Z,96347.22
2023-02-03T04:15:45.406Z,96349.13
2023-02-03T04:19:29.503Z,96339.41
2023-02-03T04:23:12.608Z,96372.00
2023-02-03T04:26:55.325Z,96359.66
2023-02-03T04:30:37.974Z,96361.31
2023-02-03T04:34:20.613Z,96368.72
2023-02-03T04:38:04.675Z,96360.50
2023-02-03T04:41:47.315Z,96367.06
2023-02-03T04:45:29.953Z,96358.31
2023-02-03T04:49:12.736Z,96387.78
2023-02-03T04:52:58.529Z,96381.88
2023-02-03T04:56:42.926Z,96392.16
2023-02-03T05:00:26.133Z,96356.38
2023-02-03T05:04:08.985Z,96369.28
2023-02-03T05:07:51.618Z,96350.38
2023-02-03T05:11:34.298Z,96354.19
2023-02-03T05:15:18.499Z,96358.03
2023-02-03T05:19:01.427Z,96360.50
2023-02-03T05:22:44.095Z,96361.19
2023-02-03T05:26:26.803Z,96364.91
2023-02-03T05:30:13.231Z,96357.25
2023-02-03T05:33:57.266Z,96360.94
2023-02-03T05:37:40.009Z,96370.50
2023-02-03T05:41:40.217Z,96340.53
2023-02-03T05:45:22.861Z,96361.34
2023-02-03T05:49:06.922Z,96325.47
2023-02-03T05:52:49.908Z,96329.03
2023-02-03T05:56:32.587Z,96316.97
2023-02-03T06:00:16.132Z,96349.03
2023-02-03T06:03:58.959Z,96336.25
2023-02-03T06:07:43.017Z,96349.84
2023-02-03T06:11:25.647Z,96350.09
2023-02-03T06:15:09.115Z,96365.72
2023-02-03T06:18:51.939Z,96352.00
2023-02-03T06:22:35.020Z,96341.31
2023-02-03T06:26:19.077Z,96331.88
2023-02-03T06:30:02.047Z,96356.81
2023-02-03T06:33:44.730Z,96378.72
2023-02-03T06:37:27.512Z,96358.84
2023-02-03T06:41:10.167Z,96334.22
2023-02-03T06:44:55.062Z,96332.31
2023-02-03T06:48:37.941Z,96321.47
2023-02-03T06:52:20.795Z,96349.84
2023-02-03T06:56:03.441Z,96397.66
2023-02-03T06:59:46.083Z,96374.63
2023-02-03T07:03:30.209Z,96373.13
2023-02-03T07:07:13.020Z,96368.06
2023-02-03T07:10:56.673Z,96369.84
2023-02-03T07:14:39.751Z,96359.16
2023-02-03T07:18:45.906Z,96358.19
2023-02-03T07:22:28.492Z,96346.81
2023-02-03T07:26:13.178Z,96336.13
2023-02-03T07:29:55.827Z,96335.84
2023-02-03T07:33:38.642Z,96373.66
2023-02-03T07:37:21.384Z,96333.09
2023-02-03T07:41:05.760Z,96318.56
2023-02-03T07:44:48.433Z,96312.78
2023-02-03T07:48:31.078Z,96309.91
2023-02-03T07:52:16.780Z,96290.53
2023-02-03T07:56:01.254Z,96282.00
2023-02-03T07:59:45.288Z,96347.28
2023-02-03T08:03:28.043Z,96294.06
2023-02-03T08:07:10.656Z,96311.34
2023-02-03T08:10:53.354Z,96309.94
2023-02-03T08:14:36.043Z,96307.63
2023-02-03T08:18:20.055Z,96324.09
2023-02-03T08:22:02.787Z,96358.44
2023-02-03T08:25:45.449Z,96380.53
2023-02-03T08:29:28.255Z,96345.25
2023-02-03T08:33:13.434Z,96350.31
2023-02-03T08:36:57.444Z,96359.25
2023-02-03T08:40:40.133Z,96334.53
2023-02-03T08:44:22.912Z,96344.94
2023-02-03T08:48:05.626Z,96357.31
2023-02-03T08:51:52.481Z,96332.88
2023-02-03T08:55:39.767Z,96337.50
2023-02-03T08:59:23.008Z,96299.66
2023-02-03T09:03:05.686Z,96308.69
2023-02-03T09:06:48.756Z,96332.59
2023-02-03T09:10:35.153Z,96304.69
2023-02-03T09:14:19.366Z,96319.88
2023-02-03T09:18:02.006Z,96338.28
2023-02-03T09:21:48.981Z,96341.56
2023-02-03T09:25:31.821Z,96299.16
2023-02-03T09:29:14.455Z,96300.34
2023-02-03T09:32:58.972Z,96324.50
2023-02-03T09:36:43.052Z,96345.66
2023-02-03T09:40:30.048Z,96303.34
2023-02-03T09:44:18.508Z,96284.84
2023-02-03T09:48:07.468Z,96322.72
2023-02-03T09:51:52.639Z,96324.81
2023-02-03T09:55:38.274Z,96365.72
2023-02-03T09:59:21.021Z,96320.13
2023-02-03T10:03:08.963Z,96280.91
2023-02-03T10:06:52.836Z,96256.38
2023-02-03T10:10:40.816Z,96273.97
2023-02-03T10:14:33.227Z,96280.91
2023-02-03T10:18:18.720Z,96330.47
2023-02-03T10:22:01.601Z,96311.84
2023-02-03T10:25:45.744Z,96396.78
2023-02-03T10:29:33.388Z,96293.81
2023-02-03T10:33:18.962Z,96286.03
2023-02-03T10:37:04.939Z,96309.59
2023-02-03T10:40:51.247Z,96293.63
2023-02-03T10:44:38.426Z,96309.03
2023-02-03T10:48:23.066Z,96286.94
2023-02-03T10:52:06.121Z,96281.97
2023-02-03T10:55:51.654Z,96338.16
2023-02-03T10:59:36.797Z,96266.50
2023-02-03T11:03:26.495Z,96284.72
2023-02-03T11:07:22.787Z,96294.13
2023-02-03T11:11:07.418Z,96293.44
2023-02-03T11:14:51.357Z,96278.31
2023-02-03T11:18:41.347Z,96289.63
2023-02-03T11:22:29.698Z,96326.19
2023-02-03T11:26:14.350Z,96284.41
2023-02-03T11:30:11.452Z,96271.72
2023-02-03T11:33:58.095Z,96245.31
2023-02-03T11:37:42.372Z,96271.53
2023-02-03T11:41:25.186Z,96226.59
2023-02-03T11:45:25.756Z,96212.78
2023-02-03T11:49:18.047Z,96214.34
2023-02-03T11:53:26.768Z,96208.69
2023-02-03T11:57:22.508Z,96208.38
2023-02-03T12:01:13.424Z,96198.91
2023-02-03T12:05:19.080Z,96174.06
2023-02-03T12:09:11.164Z,96190.72
2023-02-03T12:12:57.413Z,96200.81
2023-02-03T12:16:59.452Z,96174.34
2023-02-03T12:21:11.323Z,96204.06
2023-02-03T12:25:00.452Z,96173.66
2023-02-03T12:28:48.638Z,96152.06
2023-02-03T12:32:36.191Z,96177.13
2023-02-03T12:36:23.678Z,96194.28
2023-02-03T12:40:13.498Z,96195.81
2023-02-03T12:44:00.767Z,96130.16
2023-02-03T12:47:45.951Z,96153.31
2023-02-03T12:51:36.360Z,96139.59
2023-02-03T12:55:23.905Z,96124.63
2023-02-03T12:59:10.409Z,96170.81
2023-02-03T13:03:03.572Z,96125.91
2023-02-03T13:06:52.747Z,96164.47
2023-02-03T13:10:44.222Z,96124.25
2023-02-03T13:14:30.583Z,96109.81
2023-02-03T13:18:20.413Z,96116.22
2023-02-03T13:22:12.153Z,96091.56
2023-02-03T13:26:10.911Z,96094.03
2023-02-03T13:30:05.627Z,96080.81
2023-02-03T13:34:03.309Z,96092.56
2023-02-03T13:38:10.932Z,96091.38
2023-02-03T13:41:58.016Z,96063.94
2023-02-03T13:45:43.117Z,96064.47
2023-02-03T13:49:28.464Z,96067.38
2023-02-03T13:53:19.575Z,96065.59
2023-02-03T13:57:05.180Z,96038.34
2023-02-03T14:01:08.684Z,96037.66
2023-02-03T14:04:55.760Z,96067.34
2023-02-03T14:08:51.890Z,96032.09
2023-02-03T14:12:36.681Z,96085.28
2023-02-03T14:16:25.364Z,96024.91
2023-02-03T14:20:48.893Z,95992.94
2023-02-03T14:24:32.671Z,95993.44
2023-02-03T14:28:17.412Z,95989.66
2023-02-03T14:32:01.559Z,96008.38
2023-02-03T14:35:44.419Z,96019.31
2023-02-03T14:40:00.617Z,96038.56
2023-02-03T14:43:51.254Z,96043.13
2023-02-03T14:47:47.016Z,96045.44
2023-02-03T14:51:40.576Z,96070.22
2023-02-03T14:55:36.669Z,96034.28
2023-02-03T14:59:22.649Z,96059.03
2023-02-03T15:03:32.637Z,95997.22
2023-02-03T15:07:37.813Z,95992.06
2023-02-03T15:11:26.889Z,95975.03
2023-02-03T15:15:22.200Z,96012.69
2023-02-03T15:19:09.440Z,96009.94
2023-02-03T15:22:52.160Z,95979.09
2023-02-03T15:26:34.952Z,95999.16
2023-02-03T15:30:22.894Z,96045.03
2023-02-03T15:34:08.529Z,96017.44
2023-02-03T15:37:55.475Z,96034.56
2023-02-03T15:41:38.224Z,96022.34
2023-02-03T15:45:26.474Z,96025.78
2023-02-03T15:49:12.793Z,96017.59
2023-02-03T15:52:58.025Z,96020.88
2023-02-03T15:56:43.692Z,96022.16
2023-02-03T16:00:40.275Z,96031.78
2023-02-03T16:04:23.405Z,96060.47
2023-02-03T16:08:29.251Z,96033.56
2023-02-03T16:12:20.126Z,96065.69
2023-02-03T16:16:08.292Z,96075.94
2023-02-03T16:19:52.220Z,96037.78
2023-02-03T16:23:34.907Z,96022.13
2023-02-03T16:27:32.803Z,96059.28
2023-02-03T16:31:36.109Z,96016.88
2023-02-03T16:35:36.159Z,96027.66
2023-02-03T16:39:36.656Z,96046.84
2023-02-03T16:43:37.096Z,96055.50
2023-02-03T16:47:43.952Z,96072.28
2023-02-03T16:51:28.249Z,96070.47
2023-02-03T16:55:11.524Z,96063.06
2023-02-03T16:58:54.174Z,96066.03
2023-02-03T17:02:38.226Z,96082.97
2023-02-03T17:06:21.047Z,96067.31
2023-02-03T17:10:03.769Z,96058.16
2023-02-03T17:13:47.598Z,96081.28
2023-02-03T17:17:30.444Z,96089.66
2023-02-03T17:21:17.053Z,96092.06
2023-02-03T17:24:59.691Z,96085.81
2023-02-03T17:28:43.343Z,96075.69
2023-02-03T17:32:26.099Z,96086.50
2023-02-03T17:36:11.286Z,96088.78
2023-02-03T17:55:58.775Z,96091.19
2023-02-03T17:59:41.466Z,96093.94
2023-02-03T18:03:24.148Z,96077.75
2023-02-03T18:07:06.863Z,96089.63
2023-02-03T18:10:49.553Z,96093.19
2023-02-03T18:14:34.072Z,96109.50
2023-02-03T18:18:16.819Z,96132.97
2023-02-03T18:21:59.902Z,96092.22
2023-02-03T18:25:42.563Z,96088.59
2023-02-03T18:29:26.928Z,96140.13
2023-02-03T18:33:11.112Z,96054.25
2023-02-03T18:36:53.798Z,96083.97
2023-02-03T18:40:38.148Z,96100.72
2023-02-03T18:44:21.086Z,96135.75
2023-02-03T18:48:03.802Z,96128.75
2023-02-03T18:51:47.838Z,96093.06
2023-02-03T18:55:30.524Z,96098.28
2023-02-03T18:59:13.194Z,96106.53
2023-02-03T19:02:56.827Z,96072.97
2023-02-03T19:06:45.464Z,96078.31
2023-02-03T19:10:32.297Z,96084.75
2023-02-03T19:14:16.390Z,96065.75
2023-02-03T19:17:59.035Z,96040.56
2023-02-03T19:21:41.737Z,96038.25
2023-02-03T19:25:24.920Z,96027.84
2023-02-03T19:29:13.756Z,96058.59
2023-02-03T19:32:56.537Z,96085.16
2023-02-03T19:36:39.281Z,96069.00
2023-02-03T19:40:22.068Z,96050.91
2023-02-03T19:44:05.713Z,96076.44
2023-02-03T19:47:49.991Z,96056.03
2023-02-03T19:51:32.658Z,96025.75
2023-02-03T19:55:16.085Z,96025.47
2023-02-03T19:58:59.034Z,96024.13
2023-02-03T20:02:42.003Z,95991.25
2023-02-03T20:06:26.469Z,96005.22
2023-02-03T20:10:10.068Z,96053.75
2023-02-03T20:13:52.954Z,96039.75
2023-02-03T20:17:37.178Z,96079.63
2023-02-03T20:21:20.132Z,96009.84
2023-02-03T20:25:05.857Z,96079.78
2023-02-03T20:28:49.216Z,96063.06
2023-02-03T20:32:31.944Z,96022.63
2023-02-03T20:36:14.675Z,96050.53
2023-02-03T20:39:57.381Z,96040.06
2023-02-03T20:43:41.404Z,96043.63
2023-02-03T20:47:24.082Z,96075.16
2023-02-03T20:51:09.976Z,96087.22
2023-02-03T20:54:52.656Z,96088.19
2023-02-03T20:58:37.167Z,96088.03
2023-02-03T21:02:31.096Z,96133.50
2023-02-03T21:06:15.468Z,96092.66
2023-02-03T21:09:58.534Z,96179.25
2023-02-03T21:13:43.487Z,96084.69
2023-02-03T21:17:28.367Z,96100.84
2023-02-03T21:21:15.179Z,96101.97
2023-02-03T21:24:58.866Z,96106.06
2023-02-03T21:28:41.601Z,96089.59
2023-02-03T21:32:27.670Z,96079.56
2023-02-03T21:36:16.523Z,96092.28
2023-02-03T21:39:59.266Z,96089.72
2023-02-03T21:43:41.873Z,96086.81
2023-02-03T21:47:24.506Z,96079.38
2023-02-03T21:51:16.693Z,96077.41
2023-02-03T21:54:59.384Z,96097.72
2023-02-03T21:58:42.158Z,96111.88
2023-02-03T22:02:46.493Z,96089.03
2023-02-03T22:06:39.967Z,96111.13
2023-02-03T22:10:22.642Z,96094.44
2023-02-03T22:14:05.422Z,96094.16
2023-02-03T22:17:49.673Z,96065.34
2023-02-03T22:21:33.708Z,96078.91
2023-02-03T22:25:16.550Z,96088.50
2023-02-03T22:28:59.250Z,96089.59
2023-02-03T22:32:41.922Z,96120.47
2023-02-03T22:36:25.808Z,96113.47
2023-02-03T22:40:11.460Z,96099.22
2023-02-03T22:43:56.871Z,96093.47
2023-02-03T22:47:39.517Z,96093.69
2023-02-03T22:51:22.176Z,96133.44
2023-02-03T22:55:05.479Z,96117.28
2023-02-03T22:58:49.535Z,96129.94
2023-02-03T23:02:32.208Z,96128.97
2023-02-03T23:06:14.867Z,96130.06
2023-02-03T23:09:57.499Z,96128.34
2023-02-03T23:13:43.117Z,96158.78
2023-02-03T23:17:27.221Z,96135.53
2023-02-03T23:21:09.840Z,96218.44
2023-02-03T23:24:52.474Z,96194.19
2023-02-03T23:28:35.129Z,96206.25
2023-02-03T23:32:17.788Z,96179.56
2023-02-03T23:36:01.900Z,96195.84
2023-02-03T23:39:44.597Z,96189.66
2023-02-03T23:43:28.053Z,96192.56
2023-02-03T23:47:10.765Z,96211.22
2023-02-03T23:50:53.458Z,96198.47
2023-02-03T23:54:37.601Z,96198.06
2023-02-03T23:58:20.269Z,96204.63
